Time;durP1;ratioP1;P1;durP2;ratioP2;P2;SDS_P1;SDS_P2;PMS_P1;PMS_P2;Temp;Humidity;BMP_temperature;BMP_pressure;BME280_temperature;BME280_humidity;BME280_pressure;Samples;Min_cycle;Max_cycle;Signal;HPM_P1;HPM_P2
2023/01/11 00:01:11;;;;;;;141.10;79.40;;;;;;;2.37;83.75;97484.36;108740;1251;99924;-74
2023/01/11 00:03:40;;;;;;;131.30;75.80;;;;;;;2.35;83.80;97487.88;108873;1251;95903;-74
2023/01/11 00:06:08;;;;;;;127.20;71.90;;;;;;;2.35;83.75;97489.81;108852;1251;96010;-74
2023/01/11 00:08:37;;;;;;;114.40;69.60;;;;;;;2.36;83.85;97487.52;108604;1251;103543;-74
2023/01/11 00:11:10;;;;;;;108.10;66.50;;;;;;;2.36;83.88;97484.25;108851;1251;101301;-74
2023/01/11 00:13:39;;;;;;;105.10;64.10;;;;;;;2.36;83.85;97483.91;108807;1251;99958;-75
2023/01/11 00:16:08;;;;;;;115.80;68.20;;;;;;;2.38;83.88;97490.10;108808;1251;95517;-74
2023/01/11 00:18:37;;;;;;;109.90;65.70;;;;;;;2.39;83.96;97488.52;108820;1251;95644;-74
2023/01/11 00:21:06;;;;;;;112.50;64.80;;;;;;;2.42;83.96;97487.15;108792;1251;103717;-74
2023/01/11 00:23:36;;;;;;;102.80;63.60;;;;;;;2.43;83.91;97486.18;108649;1251;101129;-73
2023/01/11 00:26:05;;;;;;;107.10;63.80;;;;;;;2.43;83.89;97490.61;108679;1251;185720;-73
2023/01/11 00:28:34;;;;;;;103.70;63.90;;;;;;;2.45;84.04;97495.92;108810;1251;95831;-74
2023/01/11 00:31:02;;;;;;;104.80;62.50;;;;;;;2.47;83.89;97501.06;108817;1251;96045;-75
2023/01/11 00:33:31;;;;;;;104.10;62.50;;;;;;;2.47;83.87;97503.14;108735;1251;102933;-74
2023/01/11 00:35:59;;;;;;;102.30;57.90;;;;;;;2.48;83.81;97500.95;108828;1251;101387;-74
2023/01/11 00:38:50;;;;;;;88.40;53.70;;;;;;;2.49;83.77;97501.75;108783;1251;99968;-74
2023/01/11 00:49:36;;;;;;;83.50;50.70;;;;;;;2.51;83.80;97500.23;108828;1251;101416;-74
2023/01/11 00:52:07;;;;;;;84.30;51.80;;;;;;;2.51;83.87;97500.20;108840;1251;100101;-74
2023/01/11 00:54:37;;;;;;;95.20;57.20;;;;;;;2.53;83.83;97504.17;108783;1251;95695;-74
2023/01/11 00:57:06;;;;;;;98.60;58.00;;;;;;;2.53;83.82;97507.64;108847;1251;96088;-73
2023/01/11 00:59:35;;;;;;;100.50;58.70;;;;;;;2.55;83.82;97509.06;108788;1252;103581;-74
2023/01/11 01:02:04;;;;;;;95.80;55.50;;;;;;;2.57;83.83;97506.60;108860;1251;101682;-74
2023/01/11 01:04:32;;;;;;;90.20;53.00;;;;;;;2.52;83.86;97498.23;108805;1251;99022;-74
2023/01/11 01:07:01;;;;;;;72.90;44.50;;;;;;;2.47;83.95;97495.30;108804;1251;95560;-75
2023/01/11 01:09:29;;;;;;;62.20;38.70;;;;;;;2.46;83.99;97492.13;108851;1251;97081;-74
2023/01/11 01:11:58;;;;;;;69.40;41.20;;;;;;;2.45;84.02;97494.70;108857;1251;103568;-74
2023/01/11 01:14:28;;;;;;;59.10;36.00;;;;;;;2.46;84.03;97496.40;108886;1251;101468;-74
2023/01/11 01:17:00;;;;;;;59.50;37.80;;;;;;;2.47;84.05;97495.84;108863;1251;100005;-74
2023/01/11 01:19:31;;;;;;;46.30;31.30;;;;;;;2.49;84.09;97495.45;108806;1251;95581;-73
2023/01/11 01:21:59;;;;;;;51.40;31.40;;;;;;;2.51;84.07;97497.77;108853;1251;95987;-74
2023/01/11 01:24:31;;;;;;;54.10;34.70;;;;;;;2.51;84.02;97497.57;108701;1251;102748;-74
2023/01/11 01:26:59;;;;;;;49.70;32.30;;;;;;;2.51;84.00;97498.97;108889;1251;101315;-73
2023/01/11 01:29:27;;;;;;;50.00;33.50;;;;;;;2.52;84.15;97502.65;108842;1251;100114;-74
2023/01/11 01:31:55;;;;;;;47.20;30.50;;;;;;;2.53;84.04;97505.51;108633;1251;96564;-74
2023/01/11 01:34:24;;;;;;;45.20;28.10;;;;;;;2.54;83.90;97506.33;108872;1251;96137;-74
2023/01/11 01:36:52;;;;;;;42.50;28.10;;;;;;;2.53;83.86;97501.27;108862;1251;103336;-75
2023/01/11 01:39:20;;;;;;;45.50;29.10;;;;;;;2.51;83.87;97497.59;108817;1251;101374;-75
2023/01/11 01:41:48;;;;;;;46.50;29.60;;;;;;;2.52;83.93;97497.51;108835;1251;99822;-74
2023/01/11 01:44:55;;;;;;;42.50;28.80;;;;;;;2.55;83.94;97503.23;108857;1251;95543;-74
2023/01/11 01:47:38;;;;;;;39.20;25.80;;;;;;;2.58;83.96;97506.55;108875;1251;96002;-74
2023/01/11 01:50:18;;;;;;;;;;;;;;;2.58;84.00;97503.84;108876;1251;103539;-75
2023/01/11 01:52:50;;;;;;;47.40;30.10;;;;;;;2.54;83.89;97499.41;108910;1251;101331;-74
2023/01/11 01:55:26;;;;;;;44.80;30.40;;;;;;;2.53;83.89;97495.20;108798;1251;100065;-74
2023/01/11 01:57:56;;;;;;;43.40;28.40;;;;;;;2.55;83.91;97500.56;108839;1251;95871;-74
2023/01/11 02:00:24;;;;;;;40.40;27.10;;;;;;;2.53;83.81;97504.83;108916;1251;96071;-74
2023/01/11 02:02:53;;;;;;;38.10;26.60;;;;;;;2.51;83.94;97504.20;108849;1251;103634;-73
2023/01/11 02:05:21;;;;;;;40.40;26.30;;;;;;;2.48;84.02;97500.74;108851;1251;101800;-74
2023/01/11 02:07:50;;;;;;;38.40;25.60;;;;;;;2.48;84.00;97499.01;108883;1251;99811;-74
2023/01/11 02:10:21;;;;;;;41.10;26.30;;;;;;;2.49;83.92;97505.05;108843;1251;95581;-74
2023/01/11 02:13:00;;;;;;;37.30;26.10;;;;;;;2.52;84.02;97509.06;108871;1251;95980;-74
2023/01/11 02:15:29;;;;;;;38.60;25.40;;;;;;;2.56;84.10;97507.73;108828;1251;103400;-75
2023/01/11 02:17:57;;;;;;;39.00;25.60;;;;;;;2.57;84.01;97509.94;108868;1251;101354;-74
2023/01/11 02:20:44;;;;;;;37.00;24.80;;;;;;;2.52;83.92;97513.33;108834;1251;100092;-74
2023/01/11 02:23:15;;;;;;;36.50;24.00;;;;;;;2.51;83.96;97514.15;108841;1251;95502;-74
2023/01/11 02:26:17;;;;;;;36.40;24.60;;;;;;;2.52;84.00;97517.42;108841;1251;96337;-74
2023/01/11 02:28:45;;;;;;;;;;;;;;;2.47;83.96;97515.63;108846;1251;103721;-75
2023/01/11 02:31:16;;;;;;;39.30;26.20;;;;;;;2.41;84.05;97513.17;108801;1251;101468;-74
2023/01/11 02:34:02;;;;;;;40.10;27.10;;;;;;;2.43;84.11;97520.45;108866;1251;100122;-73
2023/01/11 02:36:51;;;;;;;38.80;26.10;;;;;;;2.47;84.19;97521.14;108822;1251;95567;-75
2023/01/11 02:39:37;;;;;;;37.80;26.00;;;;;;;2.47;84.19;97522.35;108851;1252;95978;-74
2023/01/11 02:45:24;;;;;;;42.60;28.50;;;;;;;2.49;84.20;97522.00;108823;1251;101399;-74
2023/01/11 02:48:18;;;;;;;38.00;26.70;;;;;;;2.49;84.17;97518.77;108798;1251;100108;-74
2023/01/11 02:50:57;;;;;;;38.80;27.00;;;;;;;2.50;84.14;97520.97;108739;1254;95619;-74
2023/01/11 02:53:43;;;;;;;40.10;27.00;;;;;;;2.51;84.20;97522.29;108774;1251;96044;-73
2023/01/11 02:56:16;;;;;;;42.10;27.30;;;;;;;2.53;84.12;97524.42;108831;1251;103273;-74
2023/01/11 02:58:48;;;;;;;39.80;27.10;;;;;;;2.55;84.09;97524.52;108844;1251;101194;-74
2023/01/11 03:01:18;;;;;;;41.80;28.10;;;;;;;2.55;84.07;97520.09;108803;1251;99884;-74
2023/01/11 03:03:46;;;;;;;44.40;28.10;;;;;;;2.54;84.04;97517.11;108761;1251;95550;-73
2023/01/11 03:06:19;;;;;;;41.00;26.30;;;;;;;2.54;84.04;97516.66;108849;1251;96019;-74
2023/01/11 03:09:14;;;;;;;39.40;25.60;;;;;;;2.52;84.06;97516.36;108819;1251;103735;-75
2023/01/11 03:15:26;;;;;;;37.10;25.70;;;;;;;2.51;84.14;97516.28;108761;1251;100173;-74
2023/01/11 03:17:57;;;;;;;36.20;25.30;;;;;;;2.53;84.24;97520.16;108783;1251;95564;-74
2023/01/11 03:20:39;;;;;;;36.40;24.30;;;;;;;2.52;84.29;97520.53;108816;1251;96017;-73
2023/01/11 03:23:19;;;;;;;36.10;24.70;;;;;;;2.53;84.11;97517.30;108807;1251;102579;-75
2023/01/11 03:25:47;;;;;;;41.30;26.00;;;;;;;2.51;83.99;97514.98;108838;1251;101547;-75
2023/01/11 03:28:34;;;;;;;41.90;26.80;;;;;;;2.50;84.00;97513.83;108823;1251;99698;-74
2023/01/11 03:31:14;;;;;;;38.90;26.60;;;;;;;2.51;84.11;97511.06;108807;1252;95791;-75
2023/01/11 03:33:51;;;;;;;39.10;26.60;;;;;;;2.53;84.14;97508.16;108845;1251;96036;-74
2023/01/11 03:36:28;;;;;;;40.80;25.60;;;;;;;2.55;84.16;97505.52;108890;1251;103467;-74
2023/01/11 03:39:05;;;;;;;38.90;26.80;;;;;;;2.56;84.20;97503.16;108653;1251;101525;-74
2023/01/11 03:41:38;;;;;;;38.10;26.20;;;;;;;2.56;84.03;97502.77;108774;1251;99600;-74
2023/01/11 03:44:10;;;;;;;44.80;28.30;;;;;;;2.57;83.96;97500.21;108782;1251;95537;-75
2023/01/11 03:46:49;;;;;;;42.30;27.40;;;;;;;2.56;83.93;97503.87;108835;1252;95840;-73
2023/01/11 03:49:23;;;;;;;41.10;27.20;;;;;;;2.55;83.91;97505.16;108837;1251;104279;-74
2023/01/11 03:51:54;;;;;;;41.00;28.00;;;;;;;2.55;84.00;97501.13;108791;1251;101279;-73
2023/01/11 03:54:24;;;;;;;39.80;27.40;;;;;;;2.55;84.04;97501.83;108772;1251;99913;-74
2023/01/11 03:57:05;;;;;;;39.90;26.80;;;;;;;2.56;84.05;97504.73;108778;1251;95572;-74
2023/01/11 03:59:34;;;;;;;37.30;24.70;;;;;;;2.56;84.03;97506.14;108871;1251;96165;-74
2023/01/11 04:02:02;;;;;;;37.90;25.60;;;;;;;2.57;84.09;97505.67;108862;1251;103476;-74
2023/01/11 04:04:31;;;;;;;36.90;25.40;;;;;;;2.59;84.00;97498.98;108819;1251;101252;-73
2023/01/11 04:06:59;;;;;;;37.90;25.40;;;;;;;2.60;83.96;97497.10;108837;1251;100157;-74
2023/01/11 04:09:27;;;;;;;36.40;24.90;;;;;;;2.61;84.03;97495.90;108774;1251;95588;-75
2023/01/11 04:11:55;;;;;;;35.10;24.40;;;;;;;2.61;84.01;97495.77;108770;1251;96003;-74
2023/01/11 04:14:23;;;;;;;34.60;24.10;;;;;;;2.60;83.85;97493.73;108836;1251;112107;-74
2023/01/11 04:16:51;;;;;;;34.40;24.20;;;;;;;2.60;83.99;97491.02;108834;1251;101409;-72
2023/01/11 04:19:19;;;;;;;37.60;26.20;;;;;;;2.61;83.99;97491.82;108827;1251;100146;-75
2023/01/11 04:21:47;;;;;;;34.90;23.70;;;;;;;2.61;83.92;97495.70;108819;1251;95619;-73
2023/01/11 04:24:17;;;;;;;32.50;22.80;;;;;;;2.61;83.95;97496.21;108802;1252;96078;-75
2023/01/11 04:26:45;;;;;;;32.10;22.90;;;;;;;2.61;83.84;97497.70;108881;1251;103193;-74
2023/01/11 04:29:13;;;;;;;34.50;23.60;;;;;;;2.59;83.78;97496.13;108774;1251;101541;-74
2023/01/11 04:31:41;;;;;;;35.10;23.50;;;;;;;2.59;83.93;97495.79;108809;1251;99470;-74
2023/01/11 04:34:11;;;;;;;34.10;23.20;;;;;;;2.60;83.95;97494.44;108564;1251;95642;-74
2023/01/11 04:36:40;;;;;;;35.60;24.00;;;;;;;2.60;83.86;97493.67;108795;1252;96036;-74
2023/01/11 04:39:09;;;;;;;33.10;22.80;;;;;;;2.61;83.95;97493.27;108841;1256;102745;-74
2023/01/11 04:44:24;;;;;;;38.90;24.80;;;;;;;2.63;84.08;97491.98;108816;1251;100253;-74
2023/01/11 04:46:52;;;;;;;37.80;25.20;;;;;;;2.63;84.12;97495.02;108859;1251;95568;-74
2023/01/11 04:49:20;;;;;;;38.30;25.70;;;;;;;2.62;84.00;97499.35;108851;1251;96063;-74
2023/01/11 04:51:48;;;;;;;39.70;26.20;;;;;;;2.61;83.91;97503.30;108856;1251;103768;-74
2023/01/11 04:54:17;;;;;;;45.00;25.40;;;;;;;2.61;83.97;97507.94;108830;1251;101344;-74
2023/01/11 04:56:45;;;;;;;40.00;26.10;;;;;;;2.60;84.00;97510.86;108837;1251;98727;-74
2023/01/11 04:59:14;;;;;;;38.90;25.70;;;;;;;2.59;84.04;97513.48;108635;1257;95793;-73
2023/01/11 05:01:42;;;;;;;40.50;26.50;;;;;;;2.60;84.09;97511.99;108865;1253;96033;-73
2023/01/11 05:04:10;;;;;;;39.80;26.70;;;;;;;2.61;84.00;97504.73;108801;1251;103086;-74
2023/01/11 05:06:38;;;;;;;39.60;24.20;;;;;;;2.63;83.97;97498.92;108893;1251;101363;-74
2023/01/11 05:09:12;;;;;;;36.10;24.10;;;;;;;2.64;83.95;97498.06;108825;1251;98977;-76
2023/01/11 05:11:40;;;;;;;37.40;24.40;;;;;;;2.65;83.95;97497.14;108801;1251;95616;-74
2023/01/11 05:14:08;;;;;;;41.30;25.60;;;;;;;2.64;83.91;97497.34;108800;1251;96003;-73
2023/01/11 05:16:37;;;;;;;37.20;25.30;;;;;;;2.65;84.03;97495.66;108830;1251;103632;-74
2023/01/11 05:19:06;;;;;;;38.70;24.40;;;;;;;2.65;83.98;97494.73;108851;1251;101546;-75
2023/01/11 05:21:38;;;;;;;39.90;25.50;;;;;;;2.66;84.07;97488.77;108794;1252;100229;-74
2023/01/11 05:24:09;;;;;;;44.70;25.90;;;;;;;2.67;84.06;97486.20;108765;1253;95647;-74
2023/01/11 05:26:39;;;;;;;36.30;24.40;;;;;;;2.67;84.05;97483.90;108844;1251;96030;-74
2023/01/11 05:29:10;;;;;;;37.80;25.60;;;;;;;2.67;84.00;97483.47;108805;1251;103266;-74
2023/01/11 05:31:40;;;;;;;39.70;24.90;;;;;;;2.68;84.01;97480.02;108830;1251;101538;-74
2023/01/11 05:34:12;;;;;;;43.00;26.00;;;;;;;2.69;83.92;97477.45;108819;1251;99885;-74
2023/01/11 05:36:41;;;;;;;39.20;25.30;;;;;;;2.69;84.08;97472.81;108779;1252;95647;-74
2023/01/11 05:39:12;;;;;;;38.60;24.10;;;;;;;2.71;84.05;97475.09;108862;1251;96134;-74
2023/01/11 05:41:40;;;;;;;38.30;25.90;;;;;;;2.73;83.99;97473.61;108784;1251;103574;-74
2023/01/11 05:46:57;;;;;;;42.80;26.40;;;;;;;2.74;84.00;97472.45;108827;1253;100124;-73
2023/01/11 05:49:26;;;;;;;43.50;26.50;;;;;;;2.70;83.93;97468.13;108661;1251;97261;-75
2023/01/11 05:51:54;;;;;;;41.30;26.80;;;;;;;2.66;83.93;97463.91;108824;1251;96673;-74
2023/01/11 05:54:22;;;;;;;42.40;25.50;;;;;;;2.64;83.95;97463.39;108773;1253;103262;-76
2023/01/11 05:56:50;;;;;;;41.70;26.00;;;;;;;2.64;84.13;97464.84;108841;1251;101625;-74
2023/01/11 05:59:18;;;;;;;43.70;27.50;;;;;;;2.64;84.21;97468.91;108814;1252;99854;-74
2023/01/11 06:01:46;;;;;;;40.50;25.80;;;;;;;2.64;84.11;97473.91;108794;1253;95634;-75
2023/01/11 06:04:14;;;;;;;45.60;27.40;;;;;;;2.64;84.14;97472.09;108886;1251;95996;-75
2023/01/11 06:06:42;;;;;;;43.40;27.90;;;;;;;2.64;84.08;97475.48;108696;1252;103429;-74
2023/01/11 06:09:10;;;;;;;43.80;29.80;;;;;;;2.65;84.09;97481.40;108870;1251;101256;-74
2023/01/11 06:11:38;;;;;;;48.70;32.40;;;;;;;2.66;84.04;97486.13;108829;1251;99571;-74
2023/01/11 06:14:06;;;;;;;51.00;34.10;;;;;;;2.66;84.13;97483.39;108774;1251;95591;-74
2023/01/11 06:16:34;;;;;;;46.40;31.30;;;;;;;2.67;84.14;97477.11;108792;1251;96001;-75
2023/01/11 06:19:02;;;;;;;45.80;30.30;;;;;;;2.67;84.07;97473.42;108800;1251;103470;-74
2023/01/11 06:21:31;;;;;;;46.80;29.50;;;;;;;2.66;83.96;97472.93;108842;1251;101513;-74
2023/01/11 06:23:59;;;;;;;41.90;27.50;;;;;;;2.67;84.11;97476.93;108808;1251;100097;-74
2023/01/11 06:26:27;;;;;;;40.90;27.30;;;;;;;2.69;84.07;97481.58;108756;1252;95641;-74
2023/01/11 06:28:55;;;;;;;42.00;27.80;;;;;;;2.68;84.03;97483.71;108820;1253;97087;-74
2023/01/11 06:31:23;;;;;;;40.00;25.60;;;;;;;2.68;84.10;97483.56;108813;1253;103697;-74
2023/01/11 06:33:51;;;;;;;43.00;26.50;;;;;;;2.68;84.05;97483.44;108860;1251;101765;-74
2023/01/11 06:36:19;;;;;;;47.80;27.90;;;;;;;2.68;84.09;97480.94;108798;1255;99382;-74
2023/01/11 06:38:47;;;;;;;48.60;31.00;;;;;;;2.69;84.05;97482.02;108785;1251;95830;-74
2023/01/11 06:41:15;;;;;;;54.60;34.10;;;;;;;2.69;84.07;97483.31;108656;1251;96085;-73
2023/01/11 06:43:43;;;;;;;55.80;34.00;;;;;;;2.66;84.03;97478.47;108829;1251;103644;-74
2023/01/11 06:46:16;;;;;;;55.30;33.40;;;;;;;2.64;84.04;97469.61;108807;1251;101171;-75
2023/01/11 06:48:44;;;;;;;;;;;;;;;2.65;84.09;97473.11;108836;1251;98916;-75
2023/01/11 06:51:14;;;;;;;56.50;33.40;;;;;;;2.64;84.05;97480.67;108784;1251;95580;-74
2023/01/11 06:53:43;;;;;;;54.30;33.20;;;;;;;2.63;84.18;97487.02;108811;1253;96137;-74
2023/01/11 06:56:14;;;;;;;52.00;31.50;;;;;;;2.61;84.19;97483.48;108918;1251;103828;-75
2023/01/11 06:58:43;;;;;;;55.30;32.60;;;;;;;2.62;84.12;97479.29;108781;1253;101393;-76
2023/01/11 07:01:11;;;;;;;58.00;32.80;;;;;;;2.64;84.25;97481.21;108834;1252;99860;-75
2023/01/11 07:03:40;;;;;;;62.50;36.40;;;;;;;2.66;84.23;97475.99;108841;1253;95852;-74
2023/01/11 07:06:08;;;;;;;57.40;34.30;;;;;;;2.68;84.32;97470.44;108843;1252;96136;-74
2023/01/11 07:08:37;;;;;;;62.10;34.70;;;;;;;2.71;84.36;97468.50;108777;1253;103400;-74
2023/01/11 07:11:05;;;;;;;57.40;35.80;;;;;;;2.73;84.30;97462.61;108778;1253;101414;-74
2023/01/11 07:13:34;;;;;;;66.40;38.70;;;;;;;2.74;84.35;97458.29;108589;1251;101096;-74
2023/01/11 07:16:02;;;;;;;66.40;35.40;;;;;;;2.74;84.29;97457.55;108800;1253;95673;-74
2023/01/11 07:18:32;;;;;;;64.20;36.30;;;;;;;2.75;84.23;97454.40;108829;1253;96232;-74
2023/01/11 07:21:01;;;;;;;70.90;41.60;;;;;;;2.76;84.22;97446.64;108812;1252;102566;-74
2023/01/11 07:23:29;;;;;;;75.20;45.60;;;;;;;2.79;84.23;97443.70;108783;1252;101903;-74
2023/01/11 07:25:57;;;;;;;76.20;47.80;;;;;;;2.81;84.18;97441.14;108800;1253;99716;-75
2023/01/11 07:28:27;;;;;;;79.50;48.50;;;;;;;2.83;84.04;97437.25;108823;1254;96799;-74
2023/01/11 07:30:55;;;;;;;68.30;44.70;;;;;;;2.85;83.99;97433.83;108792;1253;96505;-75
2023/01/11 07:33:23;;;;;;;76.90;46.80;;;;;;;2.87;83.97;97435.31;108815;1252;103583;-75
2023/01/11 07:35:52;;;;;;;84.20;48.90;;;;;;;2.89;83.96;97436.58;108815;1253;101312;-74
2023/01/11 07:38:20;;;;;;;80.50;51.20;;;;;;;2.88;83.83;97433.15;108836;1251;99482;-74
2023/01/11 07:40:48;;;;;;;93.20;56.00;;;;;;;2.85;83.75;97433.09;108811;1253;95610;-74
2023/01/11 07:43:18;;;;;;;86.70;54.40;;;;;;;2.86;83.84;97438.30;108809;1253;96330;-74
2023/01/11 07:45:48;;;;;;;84.00;53.10;;;;;;;2.90;84.05;97445.03;108794;1251;103329;-74
2023/01/11 07:48:23;;;;;;;79.70;50.00;;;;;;;2.93;84.10;97448.73;108832;1251;101388;-75
2023/01/11 07:50:52;;;;;;;72.60;46.30;;;;;;;2.97;84.16;97448.73;108806;1251;99646;-74
2023/01/11 07:53:20;;;;;;;71.00;45.20;;;;;;;3.02;84.19;97446.70;108780;1255;95523;-74
2023/01/11 07:55:48;;;;;;;70.80;43.70;;;;;;;3.07;84.14;97443.67;108607;1251;96126;-76
2023/01/11 07:58:16;;;;;;;64.10;43.30;;;;;;;3.09;83.92;97440.85;108829;1252;103045;-74
2023/01/11 08:00:45;;;;;;;74.10;44.20;;;;;;;3.10;83.83;97438.59;108829;1253;101280;-74
2023/01/11 08:03:13;;;;;;;69.10;44.60;;;;;;;3.12;83.94;97439.40;108701;1253;100125;-75
2023/01/11 08:05:41;;;;;;;72.40;46.30;;;;;;;3.16;83.85;97441.27;108577;1253;95697;-74
2023/01/11 08:08:09;;;;;;;63.90;42.70;;;;;;;3.22;83.92;97445.27;108833;1251;96023;-74
2023/01/11 08:10:37;;;;;;;62.20;41.30;;;;;;;3.29;83.97;97449.55;108519;1252;103580;-74
2023/01/11 08:15:51;;;;;;;63.70;39.20;;;;;;;3.38;83.79;97457.92;108749;1251;100091;-74
2023/01/11 08:18:19;;;;;;;56.20;35.30;;;;;;;3.42;83.65;97451.90;108756;1251;96127;-76
2023/01/11 08:20:47;;;;;;;49.30;33.10;;;;;;;3.44;83.66;97447.66;108780;1252;96003;-74
2023/01/11 08:23:15;;;;;;;51.90;33.30;;;;;;;3.49;83.47;97438.67;108766;1251;103724;-74
2023/01/11 08:25:43;;;;;;;54.40;34.10;;;;;;;3.55;83.58;97434.19;108803;1251;101249;-75
2023/01/11 08:28:12;;;;;;;59.20;34.20;;;;;;;3.63;83.50;97435.83;108706;1251;100537;-76
2023/01/11 08:30:40;;;;;;;58.00;34.80;;;;;;;3.72;83.56;97442.37;108762;1251;95893;-74
2023/01/11 08:33:10;;;;;;;51.50;31.40;;;;;;;3.78;83.43;97447.70;108626;1252;96515;-74
2023/01/11 08:35:39;;;;;;;48.00;31.90;;;;;;;3.83;83.31;97446.48;108840;1253;103454;-75
2023/01/11 08:38:08;;;;;;;52.40;32.50;;;;;;;3.89;83.31;97441.31;108665;1253;101324;-74
2023/01/11 08:40:37;;;;;;;56.60;35.60;;;;;;;3.93;83.04;97436.80;108614;1252;99067;-74
2023/01/11 08:43:05;;;;;;;55.10;33.70;;;;;;;3.94;82.83;97435.61;108781;1254;95549;-74
2023/01/11 08:45:33;;;;;;;53.40;32.00;;;;;;;4.02;82.84;97431.02;108591;1253;96478;-76
2023/01/11 08:48:02;;;;;;;41.40;27.30;;;;;;;4.11;82.75;97430.86;108805;1251;103539;-74
2023/01/11 08:50:30;;;;;;;40.50;27.20;;;;;;;4.20;82.70;97431.52;108577;1254;109108;-74
2023/01/11 08:52:58;;;;;;;43.10;26.20;;;;;;;4.27;82.74;97433.48;108763;1251;99776;-74
2023/01/11 08:55:26;;;;;;;41.10;28.00;;;;;;;4.40;82.66;97436.02;108712;1253;95859;-74
2023/01/11 08:57:57;;;;;;;63.30;39.60;;;;;;;4.51;82.67;97431.02;108866;1251;96098;-74
2023/01/11 09:00:25;;;;;;;59.40;37.10;;;;;;;4.58;82.47;97427.39;108771;1253;103665;-74
2023/01/11 09:02:53;;;;;;;69.20;40.60;;;;;;;4.67;82.37;97425.81;108771;1254;101495;-74
2023/01/11 09:05:23;;;;;;;64.30;40.80;;;;;;;4.73;82.12;97423.71;108752;1251;99253;-76
2023/01/11 09:07:54;;;;;;;59.90;37.20;;;;;;;4.72;82.00;97421.06;108661;1256;95579;-74
2023/01/11 09:10:25;;;;;;;55.90;35.40;;;;;;;4.77;81.97;97425.55;108772;1251;96009;-75
2023/01/11 09:12:54;;;;;;;45.30;31.10;;;;;;;4.98;82.08;97428.05;108806;1251;103187;-74
2023/01/11 09:15:23;;;;;;;48.50;31.80;;;;;;;5.19;81.90;97425.73;108784;1251;101326;-74
2023/01/11 09:17:52;;;;;;;47.10;31.60;;;;;;;5.32;81.52;97427.18;108774;1251;100046;-74
2023/01/11 09:20:21;;;;;;;44.50;30.20;;;;;;;5.45;81.47;97422.51;108611;1251;95569;-74
2023/01/11 09:22:50;;;;;;;48.90;32.40;;;;;;;5.59;81.30;97420.95;108798;1251;95961;-75
2023/01/11 09:25:20;;;;;;;43.90;29.80;;;;;;;5.74;81.28;97421.41;108793;1251;103645;-75
2023/01/11 09:27:51;;;;;;;37.30;25.90;;;;;;;5.87;80.93;97419.17;108824;1251;101480;-75
2023/01/11 09:30:21;;;;;;;38.90;25.60;;;;;;;5.93;80.63;97412.27;108673;1254;99868;-74
2023/01/11 09:32:51;;;;;;;39.20;25.60;;;;;;;6.01;80.52;97410.63;108839;1251;95576;-74
2023/01/11 09:35:20;;;;;;;39.90;24.80;;;;;;;6.15;80.51;97401.23;108840;1254;95996;-74
2023/01/11 09:37:50;;;;;;;39.10;24.00;;;;;;;6.30;80.26;97396.33;108682;1253;103889;-74
2023/01/11 09:40:41;;;;;;;38.10;24.90;;;;;;;6.43;80.08;97393.39;108661;1251;100403;-74
2023/01/11 09:43:13;;;;;;;41.10;25.90;;;;;;;6.52;79.40;97388.63;108654;1251;98863;-74
2023/01/11 09:45:45;;;;;;;39.40;26.60;;;;;;;6.57;79.10;97385.31;108739;1251;95565;-75
2023/01/11 09:48:42;;;;;;;39.60;25.60;;;;;;;6.62;78.99;97378.29;108846;1251;95584;-75
2023/01/11 09:51:14;;;;;;;35.40;23.40;;;;;;;6.66;78.76;97368.23;108873;1251;102067;-74
2023/01/11 09:53:49;;;;;;;40.10;25.30;;;;;;;6.73;78.60;97361.17;108882;1251;101104;-74
2023/01/11 09:56:24;;;;;;;41.70;26.10;;;;;;;6.80;78.45;97349.58;108777;1251;99971;-74
2023/01/11 09:59:01;;;;;;;43.30;25.80;;;;;;;6.94;78.31;97347.30;108819;1251;95558;-74
2023/01/11 10:01:52;;;;;;;38.50;25.50;;;;;;;7.04;78.01;97346.50;108853;1251;96035;-74
2023/01/11 10:04:36;;;;;;;38.80;26.00;;;;;;;7.20;77.78;97346.91;108816;1252;102600;-75
2023/01/11 10:07:21;;;;;;;36.70;24.90;;;;;;;7.42;77.63;97348.89;108842;1251;101333;-74
2023/01/11 10:10:19;;;;;;;39.50;24.40;;;;;;;7.61;77.21;97345.05;108807;1251;98945;-74
2023/01/11 10:13:21;;;;;;;35.00;23.80;;;;;;;7.76;76.51;97341.33;108808;1251;96631;-74
2023/01/11 10:16:29;;;;;;;32.40;22.20;;;;;;;7.96;76.41;97335.93;108170;1260;96219;-74
2023/01/11 10:19:19;;;;;;;31.10;21.80;;;;;;;8.22;75.94;97332.77;108247;1259;111454;-74
2023/01/11 10:21:52;;;;;;;31.10;21.10;;;;;;;8.38;75.51;97333.27;108238;1259;101358;-74
2023/01/11 10:24:27;;;;;;;28.10;19.70;;;;;;;8.52;75.43;97333.17;108202;1259;100068;-75
2023/01/11 10:27:04;;;;;;;28.00;19.10;;;;;;;8.73;75.14;97335.86;108111;1260;95752;-74
2023/01/11 10:29:45;;;;;;;28.50;20.10;;;;;;;8.90;74.67;97334.64;108270;1259;96137;-74
2023/01/11 10:36:09;;;;;;;26.20;19.00;;;;;;;9.27;73.64;97332.05;108250;1259;101525;-75
2023/01/11 10:39:14;;;;;;;24.60;17.50;;;;;;;9.42;73.29;97330.98;107910;1267;99941;-74
2023/01/11 10:42:06;;;;;;;25.10;17.00;;;;;;;9.50;72.72;97329.00;107928;1267;95696;-74
2023/01/11 10:44:59;;;;;;;29.80;18.70;;;;;;;9.59;72.31;97329.18;107935;1266;95776;-74
2023/01/11 10:47:40;;;;;;;;;;;;;;;9.53;71.86;97325.65;107922;1264;103472;-74
2023/01/11 10:50:51;;;;;;;20.60;14.50;;;;;;;9.28;71.42;97328.31;107938;1267;101288;-75
2023/01/11 10:53:46;;;;;;;20.50;14.40;;;;;;;8.86;71.02;97327.02;107815;1267;100055;-75
2023/01/11 10:56:25;;;;;;;24.20;16.60;;;;;;;8.54;70.78;97326.52;107826;1267;95605;-74
2023/01/11 10:59:07;;;;;;;21.30;15.10;;;;;;;8.36;70.85;97326.68;107852;1267;95980;-74
2023/01/11 11:02:01;;;;;;;24.00;15.60;;;;;;;8.24;70.96;97325.30;107847;1267;103549;-74
2023/01/11 11:04:36;;;;;;;24.00;16.00;;;;;;;8.05;70.78;97326.65;107852;1267;100363;-74
2023/01/11 11:07:31;;;;;;;21.90;14.00;;;;;;;7.93;71.03;97332.40;107852;1267;108469;-74
2023/01/11 11:10:08;;;;;;;24.10;15.70;;;;;;;7.78;70.53;97329.31;107821;1266;96266;-73
2023/01/11 11:12:41;;;;;;;23.30;13.40;;;;;;;7.59;70.68;97324.77;107857;1267;96102;-74
2023/01/11 11:15:27;;;;;;;17.90;12.30;;;;;;;7.44;70.67;97325.16;108313;1257;103529;-76
2023/01/11 11:17:55;;;;;;;18.40;11.60;;;;;;;7.34;70.69;97317.14;108402;1257;101492;-76
2023/01/11 11:20:28;;;;;;;16.70;12.10;;;;;;;7.28;70.78;97307.98;108182;1257;99974;-75
2023/01/11 11:22:57;;;;;;;20.40;12.80;;;;;;;7.19;70.78;97295.68;108340;1257;95572;-74
2023/01/11 11:25:31;;;;;;;16.90;11.50;;;;;;;7.08;71.06;97290.05;108770;1251;96103;-73
2023/01/11 11:28:07;;;;;;;16.00;11.00;;;;;;;7.01;70.84;97283.45;108798;1251;103596;-74
2023/01/11 11:30:38;;;;;;;15.40;11.00;;;;;;;6.95;70.90;97276.30;108754;1251;101303;-74
2023/01/11 11:33:19;;;;;;;16.00;10.40;;;;;;;7.01;71.04;97268.29;108773;1251;100233;-74
2023/01/11 11:35:57;;;;;;;13.90;10.40;;;;;;;7.07;70.82;97268.23;108737;1251;95544;-74
2023/01/11 11:38:28;;;;;;;14.20;10.40;;;;;;;7.14;70.90;97269.75;108805;1251;96039;-74
2023/01/11 11:41:04;;;;;;;15.30;11.10;;;;;;;7.31;70.85;97268.29;108720;1251;103344;-74
2023/01/11 11:43:35;;;;;;;14.30;10.10;;;;;;;7.58;70.80;97270.44;108751;1251;101044;-73
2023/01/11 11:46:24;;;;;;;14.60;10.20;;;;;;;7.87;70.73;97270.76;108747;1253;100377;-74
2023/01/11 11:49:16;;;;;;;13.80;10.20;;;;;;;8.11;70.01;97273.36;108748;1251;95777;-74
2023/01/11 11:51:47;;;;;;;14.50;11.00;;;;;;;8.34;69.94;97264.52;108793;1251;95674;-74
2023/01/11 11:54:27;;;;;;;14.10;10.70;;;;;;;8.59;69.88;97257.76;108756;1254;103312;-74
2023/01/11 11:56:58;;;;;;;16.60;11.30;;;;;;;8.82;69.38;97256.23;108801;1251;101405;-74
2023/01/11 11:59:31;;;;;;;15.90;10.70;;;;;;;8.96;68.87;97254.44;108745;1251;99492;-73
2023/01/11 12:02:05;;;;;;;14.20;10.60;;;;;;;9.16;68.58;97257.54;108482;1253;95628;-74
2023/01/11 12:04:48;;;;;;;14.10;11.00;;;;;;;9.26;68.04;97260.40;108755;1251;96019;-74
2023/01/11 12:07:16;;;;;;;;;;;;;;;9.37;68.14;97258.58;108800;1251;103586;-74